Time;durP1;ratioP1;P1;durP2;ratioP2;P2;SDS_P1;SDS_P2;PMS_P1;PMS_P2;Temp;Humidity;BMP_temperature;BMP_pressure;BME280_temperature;BME280_humidity;BME280_pressure;Samples;Min_cycle;Max_cycle;Signal;HPM_P1;HPM_P2
2023/09/05 00:02:02;;;;;;;;;;;;;;;14.09;100.00;101976.81;5022715;28;19916;-71
2023/09/05 00:04:28;;;;;;;;;;;;;;;13.98;100.00;101971.69;5045079;28;19913;-71
2023/09/05 00:06:53;;;;;;;;;;;;;;;13.97;100.00;101991.50;5021550;28;19909;-71
2023/09/05 00:09:18;;;;;;;;;;;;;;;13.92;100.00;101990.09;5047201;28;20302;-70
2023/09/05 00:11:47;;;;;;;;;;;;;;;13.89;100.00;101985.06;5021053;28;19917;-70
2023/09/05 00:14:12;;;;;;;;;;;;;;;13.88;100.00;101988.75;5042362;28;19990;-70
2023/09/05 00:16:40;;;;;;;;;;;;;;;13.88;100.00;101978.00;5038734;28;20491;-70
2023/09/05 00:19:06;;;;;;;;;;;;;;;13.88;100.00;101982.50;5042688;28;19916;-70
2023/09/05 00:21:31;;;;;;;;;;;;;;;13.94;100.00;101993.47;5042138;28;19917;-71
2023/09/05 00:24:15;;;;;;;;;;;;;;;13.91;100.00;101993.81;5039710;28;19917;-70
2023/09/05 00:26:40;;;;;;;;;;;;;;;13.89;100.00;101982.38;5041666;28;19975;-70
2023/09/05 00:29:05;;;;;;;;;;;;;;;13.87;100.00;101976.31;5027771;28;19912;-70
2023/09/05 00:31:30;;;;;;;;;;;;;;;13.93;100.00;101986.44;5021400;28;20016;-71
2023/09/05 00:33:56;;;;;;;;;;;;;;;13.93;100.00;101981.06;5038959;28;19924;-71
2023/09/05 00:36:21;;;;;;;;;;;;;;;13.95;100.00;101983.59;5022900;28;19935;-70
2023/09/05 00:38:47;;;;;;;;;;;;;;;13.92;100.00;101976.69;5019837;28;19916;-70
2023/09/05 00:41:15;;;;;;;;;;;;;;;13.91;100.00;101988.44;5023621;28;19916;-70
2023/09/05 00:43:41;;;;;;;;;;;;;;;13.92;100.00;101978.53;5025620;28;20007;-70
2023/09/05 00:46:06;;;;;;;;;;;;;;;13.92;100.00;101975.84;5007071;28;20007;-70
2023/09/05 00:48:32;;;;;;;;;;;;;;;13.93;100.00;101975.69;5025495;28;19919;-70
2023/09/05 00:50:57;;;;;;;;;;;;;;;13.93;100.00;101970.34;5021010;28;20411;-70
2023/09/05 00:53:24;;;;;;;;;;;;;;;13.89;100.00;101973.47;5034985;28;20389;-70
2023/09/05 00:55:49;;;;;;;;;;;;;;;13.92;100.00;101971.31;5048924;28;20010;-70
2023/09/05 00:58:14;;;;;;;;;;;;;;;13.98;100.00;101974.38;5055570;28;20402;-70
2023/09/05 01:00:39;;;;;;;;;;;;;;;13.94;100.00;101977.38;5029884;28;19916;-70
2023/09/05 01:03:05;;;;;;;;;;;;;;;13.89;100.00;101977.00;5020483;28;20463;-70
2023/09/05 01:05:33;;;;;;;;;;;;;;;13.89;100.00;101974.31;5044250;28;19919;-70
2023/09/05 01:08:31;;;;;;;;;;;;;;;13.87;100.00;101965.56;5046583;28;19913;-70
2023/09/05 01:11:00;;;;;;;;;;;;;;;13.92;100.00;101979.38;5015516;28;19916;-71
2023/09/05 01:13:26;;;;;;;;;;;;;;;13.85;100.00;101972.09;5018686;28;20007;-71
2023/09/05 01:15:52;;;;;;;;;;;;;;;13.86;100.00;101971.94;5024473;28;19955;-72
2023/09/05 01:18:17;;;;;;;;;;;;;;;13.87;100.00;101968.25;5037423;28;19982;-72
2023/09/05 01:21:04;;;;;;;;;;;;;;;13.88;100.00;101967.28;5018047;28;19915;-70
2023/09/05 01:23:31;;;;;;;;;;;;;;;13.79;100.00;101953.91;5017452;28;19919;-69
2023/09/05 01:25:57;;;;;;;;;;;;;;;13.78;100.00;101955.75;5026095;28;19920;-70
2023/09/05 01:28:23;;;;;;;;;;;;;;;13.81;100.00;101958.13;5021665;28;19917;-69
2023/09/05 01:30:49;;;;;;;;;;;;;;;13.73;100.00;101952.69;5025908;28;19924;-71
2023/09/05 01:33:15;;;;;;;;;;;;;;;13.73;100.00;101958.91;5038400;28;19951;-71
2023/09/05 01:35:40;;;;;;;;;;;;;;;13.70;100.00;101958.38;5030232;28;19913;-71
2023/09/05 01:38:05;;;;;;;;;;;;;;;13.70;100.00;101948.47;5017952;28;20595;-70
2023/09/05 01:40:31;;;;;;;;;;;;;;;13.72;100.00;101945.66;5061751;28;20023;-70
2023/09/05 01:42:56;;;;;;;;;;;;;;;13.71;100.00;101954.69;5025088;28;19928;-71
2023/09/05 01:45:23;;;;;;;;;;;;;;;13.63;100.00;101950.09;5058346;28;20380;-70
2023/09/05 01:47:48;;;;;;;;;;;;;;;13.62;100.00;101948.38;5044024;22;19959;-89
2023/09/05 01:50:13;;;;;;;;;;;;;;;13.58;100.00;101947.03;5027346;28;20062;-89
2023/09/05 01:52:38;;;;;;;;;;;;;;;13.48;100.00;101940.88;5013750;28;19913;-89
2023/09/05 01:55:04;;;;;;;;;;;;;;;13.45;100.00;101935.81;4995102;28;19917;-90
2023/09/05 01:57:30;;;;;;;;;;;;;;;13.40;100.00;101938.97;5004652;28;20339;-89
2023/09/05 01:59:55;;;;;;;;;;;;;;;13.36;100.00;101932.22;5028346;28;19959;-89
2023/09/05 02:02:21;;;;;;;;;;;;;;;13.33;100.00;101924.47;4984080;28;20023;-89
2023/09/05 02:04:46;;;;;;;;;;;;;;;13.29;100.00;101921.25;5027865;28;20336;-87
2023/09/05 02:07:11;;;;;;;;;;;;;;;13.29;100.00;101925.75;4996882;28;19929;-89
2023/09/05 02:09:36;;;;;;;;;;;;;;;13.25;100.00;101921.66;5020184;28;19971;-88
2023/09/05 02:12:02;;;;;;;;;;;;;;;13.22;100.00;101922.81;5005401;28;19971;-88
2023/09/05 02:14:27;;;;;;;;;;;;;;;13.19;100.00;101915.06;4996634;28;19913;-88
2023/09/05 02:16:52;;;;;;;;;;;;;;;13.19;100.00;101916.91;4996472;28;19962;-89
2023/09/05 02:19:19;;;;;;;;;;;;;;;13.15;100.00;101918.22;4995656;28;20422;-88
2023/09/05 02:21:45;;;;;;;;;;;;;;;13.15;100.00;101913.69;4995455;28;19918;-90
2023/09/05 02:24:10;;;;;;;;;;;;;;;13.14;100.00;101920.06;5011292;28;19996;-89
2023/09/05 02:26:37;;;;;;;;;;;;;;;13.11;100.00;101920.38;5004319;28;19913;-89
2023/09/05 02:29:02;;;;;;;;;;;;;;;13.08;100.00;101915.28;5020943;28;19924;-89
2023/09/05 02:31:27;;;;;;;;;;;;;;;13.02;100.00;101900.66;5007956;28;19917;-89
2023/09/05 02:33:53;;;;;;;;;;;;;;;13.02;100.00;101908.69;4999061;28;19945;-88
2023/09/05 02:36:19;;;;;;;;;;;;;;;13.00;100.00;101908.00;5006382;28;19913;-89
2023/09/05 02:38:44;;;;;;;;;;;;;;;13.01;100.00;101903.47;5004740;28;19917;-89
2023/09/05 02:41:10;;;;;;;;;;;;;;;12.97;100.00;101905.63;5012099;28;19936;-89
2023/09/05 02:43:36;;;;;;;;;;;;;;;12.94;100.00;101903.22;5028891;28;20051;-89
2023/09/05 02:46:01;;;;;;;;;;;;;;;12.97;100.00;101904.75;4995215;28;19917;-89
2023/09/05 02:48:27;;;;;;;;;;;;;;;12.98;100.00;101920.72;4991623;28;19921;-89
2023/09/05 02:51:02;;;;;;;;;;;;;;;12.91;100.00;101903.53;5008631;28;20015;-89
2023/09/05 02:53:27;;;;;;;;;;;;;;;12.89;100.00;101916.25;5004781;28;19913;-89
2023/09/05 02:55:53;;;;;;;;;;;;;;;12.87;100.00;101923.56;5013665;28;19920;-88
2023/09/05 02:58:19;;;;;;;;;;;;;;;12.87;100.00;101912.84;5021942;28;20356;-89
2023/09/05 03:00:47;;;;;;;;;;;;;;;12.82;100.00;101913.31;5006758;28;19963;-89
2023/09/05 03:03:13;;;;;;;;;;;;;;;12.85;100.00;101914.84;4988814;28;20438;-89
2023/09/05 03:05:38;;;;;;;;;;;;;;;12.82;100.00;101912.47;5011422;28;19918;-89
2023/09/05 03:08:06;;;;;;;;;;;;;;;12.81;100.00;101918.84;5011298;28;19917;-90
2023/09/05 03:10:31;;;;;;;;;;;;;;;12.81;100.00;101905.44;5019993;28;19913;-88
2023/09/05 03:12:56;;;;;;;;;;;;;;;12.79;100.00;101899.38;4987183;28;20371;-88
2023/09/05 03:15:23;;;;;;;;;;;;;;;12.85;100.00;101909.47;5028848;28;19913;-87
2023/09/05 03:17:48;;;;;;;;;;;;;;;12.82;100.00;101888.34;5021021;28;19910;-89
2023/09/05 03:20:15;;;;;;;;;;;;;;;12.79;100.00;101894.84;5010676;28;19935;-88
2023/09/05 03:22:41;;;;;;;;;;;;;;;12.71;100.00;101891.22;5007152;28;19913;-89
2023/09/05 03:25:06;;;;;;;;;;;;;;;12.66;100.00;101878.28;4998688;28;19924;-89
2023/09/05 03:27:31;;;;;;;;;;;;;;;12.66;100.00;101884.47;5004259;28;19975;-89
2023/09/05 03:29:57;;;;;;;;;;;;;;;12.63;100.00;101879.41;5007009;28;20283;-88
2023/09/05 03:32:22;;;;;;;;;;;;;;;12.64;100.00;101878.44;5031653;28;19917;-89
2023/09/05 03:34:48;;;;;;;;;;;;;;;12.63;100.00;101878.56;5031515;28;20084;-88
2023/09/05 03:37:15;;;;;;;;;;;;;;;12.62;100.00;101872.38;4999094;28;19921;-89
2023/09/05 03:39:41;;;;;;;;;;;;;;;12.60;100.00;101873.53;5004148;28;19913;-89
2023/09/05 03:42:06;;;;;;;;;;;;;;;12.59;100.00;101867.28;5013417;28;20847;-88
2023/09/05 03:44:31;;;;;;;;;;;;;;;12.52;100.00;101866.19;5027665;28;19913;-89
2023/09/05 03:46:57;;;;;;;;;;;;;;;12.52;100.00;101855.50;5003240;28;19913;-86
2023/09/05 03:49:23;;;;;;;;;;;;;;;12.62;100.00;101869.69;5015814;28;19924;-88
2023/09/05 03:51:48;;;;;;;;;;;;;;;12.60;100.00;101871.69;5015695;28;19913;-88
2023/09/05 03:54:13;;;;;;;;;;;;;;;12.60;100.00;101869.00;5015008;28;19920;-88
2023/09/05 03:56:38;;;;;;;;;;;;;;;12.74;100.00;101874.88;5007130;28;20295;-88
2023/09/05 03:59:04;;;;;;;;;;;;;;;12.81;100.00;101884.84;4999487;28;20371;-90
2023/09/05 04:01:29;;;;;;;;;;;;;;;13.06;100.00;101894.00;5023689;28;19982;-88
2023/09/05 04:03:54;;;;;;;;;;;;;;;12.98;100.00;101882.34;5023655;28;19917;-90
2023/09/05 04:06:19;;;;;;;;;;;;;;;12.96;100.00;101884.31;5014931;28;19944;-89
2023/09/05 04:08:45;;;;;;;;;;;;;;;12.96;100.00;101885.16;5007107;28;19928;-89
2023/09/05 04:11:10;;;;;;;;;;;;;;;12.88;100.00;101871.69;5014749;28;19913;-89
2023/09/05 04:13:35;;;;;;;;;;;;;;;12.78;100.00;101870.88;5022961;28;19913;-89
2023/09/05 04:16:02;;;;;;;;;;;;;;;12.69;100.00;101853.88;5008517;28;19909;-89
2023/09/05 04:18:27;;;;;;;;;;;;;;;12.64;100.00;101848.97;4994480;28;19917;-87
2023/09/05 04:20:57;;;;;;;;;;;;;;;12.65;100.00;101849.81;4979263;28;20012;-89
2023/09/05 04:23:23;;;;;;;;;;;;;;;12.63;100.00;101851.78;5016534;28;19921;-89
2023/09/05 04:25:54;;;;;;;;;;;;;;;12.64;100.00;101848.97;4996970;28;19909;-89
2023/09/05 04:28:19;;;;;;;;;;;;;;;12.61;100.00;101846.56;5031314;28;19924;-90
2023/09/05 04:30:45;;;;;;;;;;;;;;;12.60;100.00;101852.09;5010845;28;19913;-90
2023/09/05 04:33:11;;;;;;;;;;;;;;;12.65;100.00;101850.63;5029476;28;19963;-89
2023/09/05 04:35:37;;;;;;;;;;;;;;;12.58;100.00;101849.56;5014226;28;19920;-90
2023/09/05 04:38:03;;;;;;;;;;;;;;;12.57;100.00;101853.25;5009045;28;19921;-89
2023/09/05 04:40:28;;;;;;;;;;;;;;;12.57;100.00;101858.59;5032405;28;19920;-90
2023/09/05 04:42:54;;;;;;;;;;;;;;;12.65;100.00;101865.88;5014401;28;19917;-89
2023/09/05 04:45:19;;;;;;;;;;;;;;;12.64;100.00;101859.69;5013554;28;19916;-89
2023/09/05 04:47:44;;;;;;;;;;;;;;;12.79;100.00;101862.69;5014226;28;19928;-89
2023/09/05 04:50:09;;;;;;;;;;;;;;;12.87;100.00;101868.13;5026761;28;19913;-90
2023/09/05 04:52:35;;;;;;;;;;;;;;;12.90;100.00;101875.06;5024219;28;20391;-89
2023/09/05 04:55:03;;;;;;;;;;;;;;;12.87;100.00;101868.13;4997155;28;19917;-88
2023/09/05 04:57:28;;;;;;;;;;;;;;;12.86;100.00;101869.16;5030481;28;19913;-88
2023/09/05 04:59:57;;;;;;;;;;;;;;;12.87;100.00;101864.63;5030710;28;20445;-90
2023/09/05 05:02:26;;;;;;;;;;;;;;;12.86;100.00;101862.94;5030335;28;19952;-88
2023/09/05 05:04:51;;;;;;;;;;;;;;;12.83;100.00;101865.91;5013265;28;19909;-89
2023/09/05 05:07:17;;;;;;;;;;;;;;;12.92;100.00;101858.81;5030035;28;19923;-90
2023/09/05 05:09:42;;;;;;;;;;;;;;;13.07;100.00;101874.22;5024996;28;20327;-88
2023/09/05 05:12:08;;;;;;;;;;;;;;;13.13;100.00;101878.13;5010089;28;20320;-89
2023/09/05 05:14:33;;;;;;;;;;;;;;;13.28;100.00;101881.19;5007120;28;20012;-89
2023/09/05 05:16:58;;;;;;;;;;;;;;;13.36;100.00;101880.41;5005585;28;19920;-89
2023/09/05 05:19:24;;;;;;;;;;;;;;;13.42;100.00;101890.53;5005398;28;20357;-89
2023/09/05 05:21:49;;;;;;;;;;;;;;;13.48;100.00;101887.22;5013501;28;19975;-89
2023/09/05 05:24:15;;;;;;;;;;;;;;;13.50;100.00;101874.50;5022690;28;19924;-90
2023/09/05 05:26:41;;;;;;;;;;;;;;;13.57;100.00;101882.78;5013004;28;20590;-89
2023/09/05 05:29:06;;;;;;;;;;;;;;;13.65;100.00;101874.78;5007413;28;19914;-90
2023/09/05 05:31:34;;;;;;;;;;;;;;;13.75;100.00;101877.41;5012973;28;19924;-89
2023/09/05 05:34:00;;;;;;;;;;;;;;;13.73;100.00;101872.19;5021525;28;20549;-90
2023/09/05 05:36:26;;;;;;;;;;;;;;;13.83;100.00;101875.59;5004979;28;19912;-89
2023/09/05 05:38:51;;;;;;;;;;;;;;;13.90;100.00;101884.72;5013715;28;20031;-89
2023/09/05 05:41:17;;;;;;;;;;;;;;;14.00;100.00;101890.00;5002466;28;19921;-88
2023/09/05 05:43:42;;;;;;;;;;;;;;;13.97;100.00;101889.47;4987376;28;19920;-87
2023/09/05 05:46:09;;;;;;;;;;;;;;;14.13;100.00;101892.25;5007946;28;20272;-88
2023/09/05 05:48:35;;;;;;;;;;;;;;;14.27;100.00;101893.53;5007966;28;20444;-89
2023/09/05 05:51:00;;;;;;;;;;;;;;;14.46;100.00;101895.97;5013330;28;19919;-90
2023/09/05 05:53:26;;;;;;;;;;;;;;;14.61;100.00;101904.34;5012504;28;19913;-89
2023/09/05 05:55:51;;;;;;;;;;;;;;;15.63;100.00;101934.69;5012190;28;19920;-89
2023/09/05 05:58:16;;;;;;;;;;;;;;;17.20;100.00;101915.31;5013189;28;19960;-89
2023/09/05 06:00:50;;;;;;;;;;;;;;;18.25;100.00;101830.06;5013480;28;19913;-90
2023/09/05 06:03:19;;;;;;;;;;;;;;;18.96;100.00;101766.25;5002313;28;19913;-89
2023/09/05 06:05:45;;;;;;;;;;;;;;;19.36;100.00;101689.91;5025277;28;19913;-88
2023/09/05 06:08:10;;;;;;;;;;;;;;;19.51;100.00;101605.88;5012351;28;19924;-90
2023/09/05 06:10:35;;;;;;;;;;;;;;;19.73;100.00;101523.47;5008335;28;20276;-90
2023/09/05 06:13:01;;;;;;;;;;;;;;;20.39;100.00;101478.50;5009619;28;20060;-89
2023/09/05 06:15:26;;;;;;;;;;;;;;;20.48;100.00;101333.50;4992813;28;20366;-90
2023/09/05 06:17:57;;;;;;;;;;;;;;;21.37;100.00;101279.38;5003974;28;19967;-90
2023/09/05 06:20:23;;;;;;;;;;;;;;;21.29;100.00;101152.84;5012113;28;19913;-90
2023/09/05 06:22:49;;;;;;;;;;;;;;;20.75;100.00;100908.28;4996592;28;20445;-90
2023/09/05 06:25:15;;;;;;;;;;;;;;;21.45;100.00;101100.69;5029056;28;19913;-90
2023/09/05 06:27:43;;;;;;;;;;;;;;;21.86;100.00;100971.41;5004694;28;19917;-90
2023/09/05 06:30:11;;;;;;;;;;;;;;;22.43;100.00;100883.06;4995832;28;19913;-88
2023/09/05 06:32:37;;;;;;;;;;;;;;;22.93;100.00;100879.81;5006228;28;19980;-88
2023/09/05 06:35:02;;;;;;;;;;;;;;;23.50;100.00;100740.03;5011883;28;20023;-86
2023/09/05 06:37:29;;;;;;;;;;;;;;;23.66;100.00;100555.78;5012044;28;20057;-86
2023/09/05 06:39:55;;;;;;;;;;;;;;;22.28;100.00;100449.28;5012656;28;19948;-87
2023/09/05 06:42:21;;;;;;;;;;;;;;;21.40;100.00;100655.16;5028722;28;19909;-86
2023/09/05 06:44:47;;;;;;;;;;;;;;;20.18;100.00;100707.00;5011659;28;19924;-87
2023/09/05 06:47:12;;;;;;;;;;;;;;;20.01;100.00;100975.88;5009479;28;19923;-89
2023/09/05 06:49:38;;;;;;;;;;;;;;;20.65;100.00;101106.03;4998908;28;19914;-89
2023/09/05 06:52:03;;;;;;;;;;;;;;;21.36;100.00;101033.31;5009004;28;19913;-89
2023/09/05 06:54:28;;;;;;;;;;;;;;;21.73;100.00;101028.69;5011662;28;19916;-89
2023/09/05 06:56:53;;;;;;;;;;;;;;;21.69;100.00;101055.47;5026523;28;20035;-89
2023/09/05 06:59:19;;;;;;;;;;;;;;;21.86;100.00;100905.38;5003045;28;19917;-89
2023/09/05 07:01:44;;;;;;;;;;;;;;;21.74;100.00;100975.16;5003336;28;19916;-90
2023/09/05 07:04:10;;;;;;;;;;;;;;;22.12;100.00;100940.28;5010908;28;19920;-89
2023/09/05 07:06:36;;;;;;;;;;;;;;;22.41;100.00;100920.59;5010464;28;19971;-89
2023/09/05 07:09:02;;;;;;;;;;;;;;;22.02;100.00;100710.84;5011323;28;19922;-90
2023/09/05 07:11:27;;;;;;;;;;;;;;;22.74;100.00;100961.59;5027981;28;19979;-86
2023/09/05 07:13:52;;;;;;;;;;;;;;;22.88;100.00;100784.44;4995282;28;19913;-86
2023/09/05 07:16:17;;;;;;;;;;;;;;;22.68;100.00;100648.81;5011640;28;19920;-88
2023/09/05 07:18:43;;;;;;;;;;;;;;;22.31;100.00;100693.56;5006234;28;19919;-87
2023/09/05 07:21:08;;;;;;;;;;;;;;;22.08;100.00;100843.13;5004367;28;19952;-87
2023/09/05 07:23:33;;;;;;;;;;;;;;;22.68;100.00;100882.81;5013061;28;20362;-87
2023/09/05 07:26:02;;;;;;;;;;;;;;;22.84;100.00;100868.47;5012542;28;20552;-87
2023/09/05 07:28:28;;;;;;;;;;;;;;;22.84;100.00;100568.25;5013010;28;19913;-87
2023/09/05 07:30:53;;;;;;;;;;;;;;;22.43;100.00;100651.88;5002473;28;19913;-87
2023/09/05 07:33:18;;;;;;;;;;;;;;;23.06;100.00;100728.97;4997878;28;20294;-87
2023/09/05 07:35:44;;;;;;;;;;;;;;;22.79;100.00;100505.56;5026412;23;20308;-71
2023/09/05 07:38:09;;;;;;;;;;;;;;;22.67;100.00;100663.50;5015728;28;19918;-72
2023/09/05 07:40:35;;;;;;;;;;;;;;;23.49;100.00;100709.25;4989407;28;19920;-72
2023/09/05 07:43:00;;;;;;;;;;;;;;;22.77;100.00;100358.88;4987497;28;20012;-72
2023/09/05 07:45:25;;;;;;;;;;;;;;;22.75;100.00;100407.28;5003335;28;20328;-73
2023/09/05 07:47:51;;;;;;;;;;;;;;;22.52;100.00;100449.09;4987429;28;19921;-72
2023/09/05 07:50:17;;;;;;;;;;;;;;;22.87;100.00;100461.59;4987250;28;20005;-71
2023/09/05 07:52:42;;;;;;;;;;;;;;;22.42;99.91;100373.63;4987730;28;20408;-71
2023/09/05 07:55:07;;;;;;;;;;;;;;;23.29;98.94;100540.06;4984482;28;19920;-72
2023/09/05 07:57:35;;;;;;;;;;;;;;;23.98;96.07;100504.94;4989323;28;19972;-72
2023/09/05 08:00:00;;;;;;;;;;;;;;;23.07;93.88;100178.75;4985232;28;19914;-72
2023/09/05 08:02:25;;;;;;;;;;;;;;;22.04;97.54;100235.78;4988381;28;19928;-72
2023/09/05 08:04:51;;;;;;;;;;;;;;;22.38;100.00;100568.28;4987383;28;19918;-72
2023/09/05 08:07:16;;;;;;;;;;;;;;;22.92;98.50;100522.38;4988948;28;19924;-72
2023/09/05 08:09:41;;;;;;;;;;;;;;;22.59;97.43;100361.88;4990877;28;20343;-71
2023/09/05 08:12:06;;;;;;;;;;;;;;;22.39;99.03;100455.72;4990222;28;19940;-71
2023/09/05 08:14:32;;;;;;;;;;;;;;;23.54;98.68;100713.97;4990477;28;19937;-71
2023/09/05 08:16:57;;;;;;;;;;;;;;;24.38;93.04;100481.03;4988781;28;20373;-72
2023/09/05 08:19:22;;;;;;;;;;;;;;;25.44;89.71;100490.16;4986042;28;19914;-72
2023/09/05 08:21:47;;;;;;;;;;;;;;;24.98;88.10;100285.09;4987455;28;19918;-71
2023/09/05 08:24:13;;;;;;;;;;;;;;;24.46;85.35;99920.41;4989173;28;20000;-72
2023/09/05 08:26:39;;;;;;;;;;;;;;;24.59;89.46;100354.59;4987947;28;19925;-72
2023/09/05 08:29:06;;;;;;;;;;;;;;;25.60;86.43;100385.25;4989203;28;19932;-72
2023/09/05 08:31:31;;;;;;;;;;;;;;;25.02;84.28;99994.03;4990015;28;20035;-72
2023/09/05 08:33:57;;;;;;;;;;;;;;;25.27;86.25;100293.66;5021446;28;20360;-71
2023/09/05 08:36:22;;;;;;;;;;;;;;;25.49;87.78;100490.97;4988129;28;19918;-72
2023/09/05 08:38:47;;;;;;;;;;;;;;;25.27;83.34;100040.44;4986829;28;19917;-72
2023/09/05 08:41:13;;;;;;;;;;;;;;;25.53;83.04;100166.06;4987713;28;20291;-72
2023/09/05 08:43:38;;;;;;;;;;;;;;;26.85;81.01;100335.59;4989288;28;20024;-72
2023/09/05 08:46:06;;;;;;;;;;;;;;;27.31;78.59;100223.00;4988836;28;20202;-72
2023/09/05 08:48:32;;;;;;;;;;;;;;;26.28;77.42;99794.03;4988849;28;19921;-71
2023/09/05 08:50:58;;;;;;;;;;;;;;;26.08;78.89;100011.13;4987551;28;19972;-72
2023/09/05 08:53:29;;;;;;;;;;;;;;;26.50;77.80;100069.94;4989426;28;19929;-72
2023/09/05 08:55:55;;;;;;;;;;;;;;;25.32;77.63;99708.25;4985621;28;19928;-72
2023/09/05 08:58:21;;;;;;;;;;;;;;;26.11;79.55;100203.94;4989548;28;19914;-72
2023/09/05 09:00:47;;;;;;;;;;;;;;;26.43;78.28;100198.03;4987696;28;19965;-71
2023/09/05 09:03:12;;;;;;;;;;;;;;;26.23;78.26;100147.00;4988605;28;19952;-72
2023/09/05 09:05:37;;;;;;;;;;;;;;;25.63;80.80;100182.44;4989324;28;19913;-71
2023/09/05 09:08:03;;;;;;;;;;;;;;;25.61;79.78;100138.16;4986431;28;19953;-72
2023/09/05 09:10:28;;;;;;;;;;;;;;;25.92;80.47;100276.72;5003465;28;20364;-73
2023/09/05 09:12:55;;;;;;;;;;;;;;;25.56;78.77;100017.91;4985649;28;20028;-72
2023/09/05 09:15:23;;;;;;;;;;;;;;;26.43;79.53;100370.47;4986946;28;19920;-73
2023/09/05 09:17:50;;;;;;;;;;;;;;;27.20;77.14;100249.66;4986808;28;19910;-73
2023/09/05 09:20:16;;;;;;;;;;;;;;;27.44;74.74;100128.31;4987753;28;20370;-72
2023/09/05 09:22:42;;;;;;;;;;;;;;;25.83;75.37;99776.94;4988691;28;19918;-71
2023/09/05 09:25:20;;;;;;;;;;;;;;;25.95;76.46;99929.72;4986618;28;20020;-72
2023/09/05 09:27:55;;;;;;;;;;;;;;;26.97;75.19;100122.41;4982673;28;20319;-72
2023/09/05 09:30:22;;;;;;;;;;;;;;;26.87;73.67;99876.88;4988082;28;20412;-72
2023/09/05 09:32:49;;;;;;;;;;;;;;;27.29;74.33;100089.00;4987765;28;20067;-72
2023/09/05 09:35:14;;;;;;;;;;;;;;;27.28;73.29;99988.75;4986544;28;19991;-72
2023/09/05 09:37:40;;;;;;;;;;;;;;;27.36;72.34;99937.94;4988390;28;20361;-72
2023/09/05 09:40:06;;;;;;;;;;;;;;;26.92;72.01;99794.63;5018300;28;20157;-72
2023/09/05 09:42:31;;;;;;;;;;;;;;;27.24;72.74;99956.72;4987393;28;20344;-73
2023/09/05 09:44:56;;;;;;;;;;;;;;;27.47;74.30;100248.38;4987125;28;19918;-71
2023/09/05 09:47:22;;;;;;;;;;;;;;;27.66;73.58;100175.25;4987149;28;19928;-71
2023/09/05 09:49:50;;;;;;;;;;;;;;;27.17;74.54;100124.19;4986934;28;20312;-72
2023/09/05 09:52:16;;;;;;;;;;;;;;;27.29;74.63;100179.44;4983808;28;20320;-72
2023/09/05 09:54:44;;;;;;;;;;;;;;;27.82;75.76;100381.63;4987019;28;19964;-71
2023/09/05 09:57:12;;;;;;;;;;;;;;;28.05;75.95;100484.34;4982589;28;20008;-72
2023/09/05 09:59:43;;;;;;;;;;;;;;;28.25;75.43;100411.19;4988988;28;19918;-73
2023/09/05 10:02:09;;;;;;;;;;;;;;;27.72;75.06;100190.56;4984263;28;19924;-72
2023/09/05 10:04:35;;;;;;;;;;;;;;;27.62;75.95;100259.19;5002900;28;19923;-72
2023/09/05 10:07:06;;;;;;;;;;;;;;;27.56;76.91;100378.25;4985989;28;19910;-72
2023/09/05 10:09:34;;;;;;;;;;;;;;;27.67;75.96;100286.56;4987232;28;19917;-71
2023/09/05 10:12:00;;;;;;;;;;;;;;;28.25;74.42;100304.94;4985318;28;19920;-72
2023/09/05 10:14:26;;;;;;;;;;;;;;;28.49;73.74;100236.34;4998467;28;19914;-72
2023/09/05 10:16:52;;;;;;;;;;;;;;;28.64;72.75;100281.22;4984973;28;20476;-71
2023/09/05 10:19:22;;;;;;;;;;;;;;;29.80;69.12;100176.00;4984379;28;19913;-73
2023/09/05 10:21:49;;;;;;;;;;;;;;;29.93;65.62;99799.38;4981491;28;20381;-72
2023/09/05 10:24:15;;;;;;;;;;;;;;;30.31;66.45;99997.16;4982587;28;20293;-71
2023/09/05 10:26:41;;;;;;;;;;;;;;;30.32;62.63;99563.78;4986002;28;20455;-73
2023/09/05 10:29:25;;;;;;;;;;;;;;;30.05;62.53;99505.16;4983694;28;20004;-71
2023/09/05 10:31:50;;;;;;;;;;;;;;;29.67;61.46;99338.81;4982795;28;19925;-72
2023/09/05 10:34:15;;;;;;;;;;;;;;;30.48;61.40;99640.13;4982596;28;19985;-72
2023/09/05 10:36:42;;;;;;;;;;;;;;;31.11;59.65;99596.47;4985532;28;19918;-72
2023/09/05 10:39:24;;;;;;;;;;;;;;;31.10;57.24;99253.13;4984622;28;19913;-72
2023/09/05 10:41:51;;;;;;;;;;;;;;;31.15;57.46;99317.47;4980991;28;19921;-72
2023/09/05 10:44:16;;;;;;;;;;;;;;;31.57;56.66;99365.19;4983462;28;19922;-71
2023/09/05 10:46:41;;;;;;;;;;;;;;;31.21;56.01;99107.44;4987269;28;19918;-71
2023/09/05 10:49:11;;;;;;;;;;;;;;;30.23;56.70;98928.00;4983140;28;19928;-71
2023/09/05 10:51:56;;;;;;;;;;;;;;;29.59;56.65;98816.38;4985004;28;20314;-71
2023/09/05 10:54:28;;;;;;;;;;;;;;;30.33;56.85;99100.22;4984313;28;20389;-70
2023/09/05 10:56:54;;;;;;;;;;;;;;;29.99;57.15;99066.22;4983485;28;20320;-72
2023/09/05 10:59:26;;;;;;;;;;;;;;;31.04;57.12;99480.44;4983649;28;19960;-72
2023/09/05 11:01:56;;;;;;;;;;;;;;;31.50;55.33;99360.19;4983655;28;19917;-71
2023/09/05 11:04:26;;;;;;;;;;;;;;;30.76;55.54;99077.03;4983498;28;19925;-72
2023/09/05 11:07:02;;;;;;;;;;;;;;;29.96;56.32;98957.66;4982255;28;20024;-71
2023/09/05 11:09:28;;;;;;;;;;;;;;;30.06;58.71;99396.69;4981612;28;19955;-72
2023/09/05 11:11:54;;;;;;;;;;;;;;;30.01;60.52;99652.75;4985100;28;19918;-72
2023/09/05 11:14:33;;;;;;;;;;;;;;;30.31;60.21;99672.31;4984470;28;19918;-72
2023/09/05 11:16:58;;;;;;;;;;;;;;;31.09;60.27;99923.19;4984674;28;19921;-73
2023/09/05 11:19:33;;;;;;;;;;;;;;;30.91;57.78;99394.09;4981950;28;19910;-72
2023/09/05 11:22:25;;;;;;;;;;;;;;;31.63;56.84;99558.88;4985048;28;19914;-72
2023/09/05 11:24:58;;;;;;;;;;;;;;;31.46;56.63;99501.84;4983595;28;20014;-72
2023/09/05 11:27:25;;;;;;;;;;;;;;;31.52;56.23;99435.13;4982364;28;20237;-73
2023/09/05 11:29:55;;;;;;;;;;;;;;;31.30;56.91;99465.72;4983509;28;19910;-73
2023/09/05 11:32:29;;;;;;;;;;;;;;;30.73;57.86;99391.72;4981491;28;20290;-73
2023/09/05 11:34:54;;;;;;;;;;;;;;;30.38;58.99;99496.44;4984210;28;19914;-73
2023/09/05 11:37:20;;;;;;;;;;;;;;;29.82;60.13;99460.47;4982583;28;19918;-73
2023/09/05 11:39:49;;;;;;;;;;;;;;;29.55;61.27;99492.59;4984082;28;20602;-72
2023/09/05 11:42:15;;;;;;;;;;;;;;;29.47;62.36;99694.06;5010664;23;19941;-91
2023/09/05 11:44:40;;;;;;;;;;;;;;;28.99;64.53;99774.34;5019020;28;19917;-89
2023/09/05 11:47:06;;;;;;;;;;;;;;;28.81;66.16;99929.91;5034128;28;19917;-90
2023/09/05 11:49:32;;;;;;;;;;;;;;;30.05;66.15;100344.50;5018123;28;19912;-89
2023/09/05 11:52:00;;;;;;;;;;;;;;;30.69;62.29;99986.53;5012487;28;19913;-88
2023/09/05 11:54:25;;;;;;;;;;;;;;;31.01;60.81;99816.50;5031174;28;19909;-91
2023/09/05 11:56:51;;;;;;;;;;;;;;;29.55;61.27;99406.53;5028365;28;19993;-90
2023/09/05 11:59:16;;;;;;;;;;;;;;;29.28;63.71;99724.50;5034281;28;20382;-89
2023/09/05 12:01:42;;;;;;;;;;;;;;;29.45;63.75;99754.88;5009360;28;19923;-90
2023/09/05 12:04:07;;;;;;;;;;;;;;;30.13;66.74;100356.75;4999145;28;19916;-90
2023/09/05 12:06:34;;;;;;;;;;;;;;;30.23;62.09;99797.75;4999697;28;19921;-90
2023/09/05 12:08:59;;;;;;;;;;;;;;;30.06;60.61;99468.25;5015534;28;19951;-90
2023/09/05 12:11:25;;;;;;;;;;;;;;;30.05;58.68;99313.34;5001497;28;19960;-89
2023/09/05 12:13:54;;;;;;;;;;;;;;;30.23;60.24;99539.81;5000836;28;19917;-88
2023/09/05 12:16:20;;;;;;;;;;;;;;;30.03;61.82;99741.31;5017341;28;19913;-90
2023/09/05 12:18:45;;;;;;;;;;;;;;;29.96;62.41;99805.03;4998502;28;19924;-90
2023/09/05 12:21:10;;;;;;;;;;;;;;;30.77;63.50;100224.69;4998978;28;19917;-91
2023/09/05 12:23:36;;;;;;;;;;;;;;;31.62;62.28;100299.34;4998207;28;20007;-90
2023/09/05 12:26:02;;;;;;;;;;;;;;;30.49;57.56;99157.09;5013690;28;19917;-90
2023/09/05 12:28:29;;;;;;;;;;;;;;;30.16;57.87;99088.16;5002487;28;20361;-90
2023/09/05 12:31:05;;;;;;;;;;;;;;;30.85;58.32;99537.88;4998738;28;20499;-91